Severance, NY (12872)

8:01 AM EDT on August 28, 2014 (GMT -0400)
KNYSCHRO2 | Change Station
CLOSE
Current Station
Personal Weather Station
Location: Schroon Lake, NY
Elevation: 866 ft
Nearby Weather Stations

Elev 866 ft 43.84 °N, 73.76 °W | Updated 1 minute ago

Mostly Cloudy
Mostly Cloudy
62.2 °F
Feels Like 62.2 °F
N
0.0
Wind Variable Wind from WNW
Gusts 0.0 mph

Today
High -- | Low -- °F
--% Chance of Precip.
Yesterday
High -- | Low -- °F
Precip. -- in
6:13 AM 7:37 PM
Waxing Crescent, 8% visible
Pressure 29.92 in
Visibility 10.0 miles
Clouds Mostly Cloudy 3800 ft
Mostly Cloudy 4700 ft
Overcast 7000 ft
Dew Point 59 °F
Humidity 89%
Rainfall 0.00 in
Snow Depth Not available.
UV 0 out of 12
Pollen 7.60 out of 12
Air Quality Not available.
Flu Activity Not available.
METAR K6B0 281155Z AUTO 36003KT 10SM BKN038 BKN047 OVC070 17/17 A2992 RMK AO2 T01710166 10171 20142

More Conditions Fewer Conditions

Pressure 29.92 in
Visibility 10.0 miles
Clouds Mostly Cloudy 3800 ft
Mostly Cloudy 4700 ft
Overcast 7000 ft
Dew Point 59 °F
Humidity 89%
Rainfall 0.00 in
Snow Depth Not available.
UV 0 out of 12
Pollen 7.60 out of 12
Air Quality Not available.
Flu Activity Not available.
METAR K6B0 281155Z AUTO 36003KT 10SM BKN038 BKN047 OVC070 17/17 A2992 RMK AO2 T01710166 10171 20142

More Conditions Fewer Conditions

10-Day Weather Forecast

Almanac

Astronomy

Aug. 28, 2014 Rise Set
Actual Time 6:13 AM EDT 7:37 PM EDT
Civil Twilight 5:43 AM EDT 8:07 PM EDT
Nautical Twilight 5:07 AM EDT 8:43 PM EDT
Astronomical Twilight 4:28 AM EDT 9:21 PM EDT
Moon 9:10 AM EDT 8:52 PM EDT
Length of Visible Light 14h 23m
Length of Day
13h 23m
Tomorrow will be 2m 51s shorter.
Waxing Crescent, 8% of the Moon is Illuminated
Today
Waxing Crescent
Sep 2
First Quarter
Sep 8
Full
Sep 15
Last Quarter
Sep 24
New

Today's Extremes

State Highs State Lows

Community

WunderPhotos

Upload Photos

1,747,932 photos uploaded!

Nearby

Air Quality

  Air Quality AQ Index Pollutant
Thursday Good
OZONE
Thursday Good
PM2.5

Snow Depth

Station Depth Elevation
No new snow has been reported.

Earthquake Activity

City Distance Mag. Time & Date
No recent earthquake activity has been reported nearby.
Minimum magnitude displayed is 2.5.

Coastal Water Temperatures

Place Temperature
No Stations Reporting

Nearby Weather Stations